Time;durP1;ratioP1;P1;durP2;ratioP2;P2;SDS_P1;SDS_P2;PMS_P1;PMS_P2;Temp;Humidity;BMP_temperature;BMP_pressure;BME280_temperature;BME280_humidity;BME280_pressure;Samples;Min_cycle;Max_cycle;Signal;HPM_P1;HPM_P2
2023/01/14 00:01:33;;;;;;;4.45;1.08;;;6.60;99.90;;;;;;5098254;28;20070;-70
2023/01/14 00:03:59;;;;;;;13.68;1.73;;;6.60;99.90;;;;;;5100981;28;20020;-68
2023/01/14 00:06:43;;;;;;;7.22;1.27;;;7.20;99.90;;;;;;5100637;28;20550;-69
2023/01/14 00:09:12;;;;;;;7.53;1.85;;;6.60;99.90;;;;;;5099547;28;20042;-69
2023/01/14 00:11:53;;;;;;;6.63;1.50;;;6.50;99.90;;;;;;5099595;28;20020;-67
2023/01/14 00:14:45;;;;;;;9.10;1.30;;;6.60;99.90;;;;;;5100689;28;20449;-70
2023/01/14 00:17:51;;;;;;;4.35;0.93;;;7.20;99.90;;;;;;5099864;28;20389;-68
2023/01/14 00:20:20;;;;;;;5.82;1.40;;;6.60;99.90;;;;;;5098748;28;20513;-69
2023/01/14 00:22:45;;;;;;;4.45;1.20;;;6.00;99.90;;;;;;5099667;28;20028;-70
2023/01/14 00:25:14;;;;;;;3.85;0.85;;;7.90;99.90;;;;;;5099238;28;20034;-69
2023/01/14 00:27:55;;;;;;;8.00;1.48;;;6.60;99.90;;;;;;5097248;28;20559;-69
2023/01/14 00:30:40;;;;;;;5.45;0.80;;;6.60;99.90;;;;;;5100359;28;20501;-67
2023/01/14 00:33:22;;;;;;;;;;;6.30;99.90;;;;;;5095996;28;20036;-68
2023/01/14 00:36:24;;;;;;;5.00;1.00;;;7.10;99.90;;;;;;5099272;28;19908;-68
2023/01/14 00:39:03;;;;;;;5.65;1.05;;;7.40;99.90;;;;;;5098235;28;20096;-70
2023/01/14 00:41:29;;;;;;;4.28;0.90;;;6.50;99.90;;;;;;5100155;28;20031;-71
2023/01/14 00:43:59;;;;;;;10.20;1.70;;;6.50;99.90;;;;;;5098186;28;20024;-68
2023/01/14 00:49:26;;;;;;;4.03;1.10;;;6.10;99.90;;;;;;5098959;28;20125;-70
2023/01/14 00:52:12;;;;;;;5.00;1.75;;;6.60;99.90;;;;;;5097275;28;20107;-71
2023/01/14 00:54:47;;;;;;;3.10;0.80;;;6.70;99.90;;;;;;5100278;28;20024;-69
2023/01/14 00:57:27;;;;;;;5.38;0.93;;;6.80;99.90;;;;;;5097583;28;20046;-69
2023/01/14 01:00:16;;;;;;;2.88;0.73;;;7.20;99.90;;;;;;5099049;28;20039;-68
2023/01/14 01:03:01;;;;;;;3.17;0.70;;;6.90;99.90;;;;;;5098455;28;20040;-68
2023/01/14 01:05:27;;;;;;;5.40;0.65;;;7.00;99.90;;;;;;5098018;28;20020;-69
2023/01/14 01:08:01;;;;;;;5.47;1.00;;;7.00;99.90;;;;;;5098382;28;20020;-69
2023/01/14 01:10:40;;;;;;;5.07;0.93;;;7.00;99.90;;;;;;5100534;28;20116;-68
2023/01/14 01:13:08;;;;;;;7.10;1.10;;;7.20;99.90;;;;;;5102400;28;20087;-69
2023/01/14 01:15:39;;;;;;;5.35;1.42;;;7.20;99.90;;;;;;5106351;28;20028;-68
2023/01/14 01:18:22;;;;;;;4.03;0.98;;;7.10;99.90;;;;;;5104070;28;20030;-69
2023/01/14 01:20:47;;;;;;;3.35;0.80;;;7.10;99.90;;;;;;5103848;28;20035;-67
2023/01/14 01:23:23;;;;;;;3.65;1.55;;;7.10;99.90;;;;;;5104059;28;20032;-70
2023/01/14 01:26:05;;;;;;;7.97;1.30;;;6.40;99.90;;;;;;5102043;28;20509;-70
2023/01/14 01:28:37;;;;;;;2.85;0.80;;;7.10;99.90;;;;;;5102501;28;20067;-69
2023/01/14 01:31:06;;;;;;;5.22;1.13;;;6.00;99.90;;;;;;5097901;28;20051;-67
2023/01/14 01:33:42;;;;;;;10.88;1.00;;;7.60;99.90;;;;;;5081081;28;20070;-67
2023/01/14 01:36:28;;;;;;;4.68;0.90;;;7.10;99.90;;;;;;5080157;28;20113;-68
2023/01/14 01:38:59;;;;;;;2.47;0.90;;;7.20;99.90;;;;;;5081117;28;20092;-70
2023/01/14 01:44:27;;;;;;;6.65;1.30;;;7.20;99.90;;;;;;5080502;28;20029;-68
2023/01/14 01:46:53;;;;;;;3.42;0.98;;;7.50;99.90;;;;;;5082310;28;20075;-70
2023/01/14 01:50:03;;;;;;;6.75;1.00;;;7.20;99.90;;;;;;5081320;28;20032;-70
2023/01/14 01:52:35;;;;;;;10.25;1.30;;;7.20;99.90;;;;;;5081112;28;20074;-68
2023/01/14 01:55:19;;;;;;;3.83;0.95;;;7.20;99.90;;;;;;5080001;28;20029;-68
2023/01/14 01:57:55;;;;;;;8.43;1.10;;;7.20;99.90;;;;;;5081560;28;20036;-72
2023/01/14 02:00:27;;;;;;;5.45;1.25;;;7.10;99.90;;;;;;5080968;28;20126;-68
2023/01/14 02:03:18;;;;;;;4.05;1.10;;;7.10;99.90;;;;;;5083519;28;20029;-69
2023/01/14 02:05:44;;;;;;;4.20;1.35;;;7.10;99.90;;;;;;5080223;28;20083;-68
2023/01/14 02:08:46;;;;;;;4.97;1.23;;;7.10;99.90;;;;;;5082099;28;20021;-69
2023/01/14 02:11:45;;;;;;;3.10;0.90;;;5.60;99.90;;;;;;5097461;28;20027;-69
2023/01/14 02:14:54;;;;;;;4.15;0.73;;;7.20;99.90;;;;;;5101046;28;20585;-69
2023/01/14 02:18:03;;;;;;;2.33;0.80;;;7.30;99.90;;;;;;5101006;28;20035;-70
2023/01/14 02:21:04;;;;;;;6.63;0.82;;;7.30;99.90;;;;;;5097445;28;20040;-69
2023/01/14 02:23:56;;;;;;;8.45;1.20;;;7.30;99.90;;;;;;5101951;28;20512;-69
2023/01/14 02:26:51;;;;;;;4.53;0.90;;;7.90;99.90;;;;;;5104332;28;20080;-66
2023/01/14 02:29:32;;;;;;;12.45;0.93;;;7.20;99.90;;;;;;5103590;28;20032;-69
2023/01/14 02:32:19;;;;;;;9.65;0.90;;;7.10;99.90;;;;;;5103266;28;20039;-66
2023/01/14 02:35:15;;;;;;;10.80;2.50;;;5.40;99.90;;;;;;5101969;28;20046;-69
2023/01/14 02:38:05;;;;;;;7.50;0.82;;;7.00;99.90;;;;;;5104025;28;20024;-69
2023/01/14 02:40:52;;;;;;;13.38;1.00;;;6.80;99.90;;;;;;5105141;28;20040;-70
2023/01/14 02:46:19;;;;;;;7.13;0.98;;;6.70;99.90;;;;;;5105563;28;20091;-70
2023/01/14 02:48:50;;;;;;;3.55;0.90;;;5.90;99.90;;;;;;5102857;28;20020;-69
2023/01/14 02:51:16;;;;;;;7.38;1.33;;;6.50;99.90;;;;;;5101905;28;20023;-69
2023/01/14 02:53:41;;;;;;;3.30;1.13;;;7.20;99.90;;;;;;5103474;28;20028;-68
2023/01/14 02:56:10;;;;;;;13.95;1.08;;;6.50;99.90;;;;;;5104039;28;20024;-67
2023/01/14 02:58:58;;;;;;;6.40;1.77;;;6.60;99.90;;;;;;5103570;28;20049;-68
2023/01/14 03:01:46;;;;;;;6.50;1.70;;;6.50;99.90;;;;;;5103376;28;20422;-68
2023/01/14 03:04:29;;;;;;;8.15;1.05;;;6.60;99.90;;;;;;5104064;28;20390;-69
2023/01/14 03:07:09;;;;;;;3.95;0.80;;;6.60;99.90;;;;;;5103088;28;20040;-66
2023/01/14 03:09:54;;;;;;;3.92;0.90;;;6.70;99.90;;;;;;5101854;28;20028;-67
2023/01/14 03:12:43;;;;;;;3.28;1.73;;;6.70;99.90;;;;;;5102284;28;20115;-66
2023/01/14 03:15:21;;;;;;;5.15;1.20;;;6.80;99.90;;;;;;5104946;28;20043;-67
2023/01/14 03:17:58;;;;;;;6.35;1.00;;;6.80;99.90;;;;;;5103859;28;20032;-67
2023/01/14 03:20:31;;;;;;;6.53;0.80;;;6.80;99.90;;;;;;5102845;28;20367;-65
2023/01/14 03:23:02;;;;;;;5.38;1.13;;;6.90;99.90;;;;;;5099464;28;20035;-66
2023/01/14 03:25:30;;;;;;;4.38;0.82;;;6.90;99.90;;;;;;5097658;28;20032;-66
2023/01/14 03:27:59;;;;;;;4.00;0.90;;;6.80;99.90;;;;;;5097472;28;20501;-65
2023/01/14 03:30:30;;;;;;;7.95;0.90;;;6.80;99.90;;;;;;5098086;28;20085;-67
2023/01/14 03:33:08;;;;;;;4.95;1.02;;;6.80;99.90;;;;;;5097715;28;20030;-68
2023/01/14 03:35:37;;;;;;;6.18;1.40;;;6.80;99.90;;;;;;5098167;28;20084;-68
2023/01/14 03:38:15;;;;;;;3.75;0.80;;;6.90;99.90;;;;;;5102072;28;20084;-67
2023/01/14 03:40:42;;;;;;;2.22;0.65;;;6.90;99.90;;;;;;5102457;28;20023;-67
2023/01/14 03:43:18;;;;;;;5.10;1.20;;;6.90;99.90;;;;;;5101882;28;20382;-67
2023/01/14 03:45:45;;;;;;;4.60;1.05;;;6.80;99.90;;;;;;5104085;28;20141;-66
2023/01/14 03:48:11;;;;;;;6.10;0.70;;;6.90;99.90;;;;;;5102333;28;20027;-66
2023/01/14 03:51:03;;;;;;;8.32;0.90;;;6.90;99.90;;;;;;5103514;28;20020;-68
2023/01/14 03:53:47;;;;;;;3.13;0.85;;;6.90;99.90;;;;;;5102057;28;20043;-64
2023/01/14 03:56:29;;;;;;;8.10;0.95;;;6.90;99.90;;;;;;5102691;28;20039;-68
2023/01/14 03:58:58;;;;;;;6.75;1.38;;;6.90;99.90;;;;;;5086602;28;20044;-68
2023/01/14 04:01:33;;;;;;;3.92;1.77;;;6.90;99.90;;;;;;5082665;28;20430;-67
2023/01/14 04:04:00;;;;;;;6.85;0.90;;;6.90;99.90;;;;;;5081156;28;20513;-68
2023/01/14 04:06:25;;;;;;;10.50;1.40;;;7.00;99.90;;;;;;5079326;28;20025;-68
2023/01/14 04:08:51;;;;;;;5.50;1.10;;;7.00;99.90;;;;;;5080519;28;20043;-67
2023/01/14 04:11:17;;;;;;;6.00;1.00;;;7.00;99.90;;;;;;5079887;28;20024;-68
2023/01/14 04:16:27;;;;;;;8.55;1.30;;;7.00;99.90;;;;;;5080251;28;20359;-68
2023/01/14 04:18:53;;;;;;;5.97;1.02;;;6.90;99.90;;;;;;5080407;28;20033;-68
2023/01/14 04:21:18;;;;;;;10.77;2.72;;;6.80;99.90;;;;;;5080533;28;20036;-68
2023/01/14 04:23:44;;;;;;;4.38;1.02;;;6.70;99.90;;;;;;5080917;28;20020;-68
2023/01/14 04:26:10;;;;;;;3.50;0.80;;;6.80;99.90;;;;;;5080121;28;20042;-68
2023/01/14 04:28:35;;;;;;;6.05;1.05;;;6.80;99.90;;;;;;5097320;28;20017;-68
2023/01/14 04:31:01;;;;;;;4.28;1.00;;;6.90;99.90;;;;;;5084618;28;20104;-67
2023/01/14 04:33:26;;;;;;;7.80;1.40;;;6.90;99.90;;;;;;5101612;28;20092;-68
2023/01/14 04:35:52;;;;;;;6.45;1.50;;;6.90;99.90;;;;;;5102193;28;20115;-67
2023/01/14 04:38:20;;;;;;;7.80;2.72;;;6.90;99.90;;;;;;5101131;28;20409;-68
2023/01/14 04:40:50;;;;;;;4.22;1.10;;;6.90;99.90;;;;;;5099823;28;20024;-67
2023/01/14 04:43:16;;;;;;;4.88;1.30;;;6.90;99.90;;;;;;5101136;28;20506;-67
2023/01/14 04:45:42;;;;;;;6.45;1.10;;;7.00;99.90;;;;;;5101660;28;20401;-68
2023/01/14 04:48:07;;;;;;;9.98;2.33;;;7.10;99.90;;;;;;5102077;28;20028;-68
2023/01/14 04:50:41;;;;;;;7.50;1.20;;;7.00;99.90;;;;;;5092418;28;20034;-68
2023/01/14 04:53:09;;;;;;;4.03;1.00;;;7.00;99.90;;;;;;5081727;28;20566;-68
2023/01/14 04:55:39;;;;;;;5.43;0.98;;;7.00;99.90;;;;;;5083309;28;20076;-68
2023/01/14 04:58:06;;;;;;;7.68;1.10;;;7.00;99.90;;;;;;5084055;28;20049;-67
2023/01/14 05:00:32;;;;;;;7.15;1.10;;;7.10;99.90;;;;;;5084576;28;20547;-67
2023/01/14 05:03:00;;;;;;;5.05;0.93;;;7.00;99.90;;;;;;5097764;28;20032;-68
2023/01/14 05:05:26;;;;;;;6.70;1.08;;;7.20;99.90;;;;;;5101776;28;20107;-68
2023/01/14 05:07:51;;;;;;;4.50;0.90;;;7.00;99.90;;;;;;5104535;28;20052;-68
2023/01/14 05:10:17;;;;;;;8.55;1.08;;;7.00;99.90;;;;;;5105098;28;20091;-67
2023/01/14 05:12:55;;;;;;;4.10;0.93;;;7.10;99.90;;;;;;5103614;28;20074;-67
2023/01/14 05:15:33;;;;;;;4.00;0.98;;;7.10;99.90;;;;;;5103085;28;20024;-67
2023/01/14 05:17:59;;;;;;;3.83;0.73;;;7.10;99.90;;;;;;5101762;28;20080;-67
2023/01/14 05:20:26;;;;;;;5.88;1.17;;;7.10;99.90;;;;;;5102587;28;20054;-67
2023/01/14 05:22:57;;;;;;;5.50;1.08;;;7.00;99.90;;;;;;5101826;28;20028;-68
2023/01/14 05:25:22;;;;;;;2.83;1.02;;;7.10;99.90;;;;;;5103236;28;20392;-68
2023/01/14 05:27:48;;;;;;;3.53;0.85;;;7.10;99.90;;;;;;5103299;28;20099;-69
2023/01/14 05:30:14;;;;;;;7.07;0.95;;;7.00;99.90;;;;;;5103434;28;20032;-68
2023/01/14 05:32:40;;;;;;;7.07;1.02;;;7.00;99.90;;;;;;5101665;28;20351;-67
2023/01/14 05:35:06;;;;;;;4.55;0.82;;;7.00;99.90;;;;;;5100663;28;20031;-68
2023/01/14 05:37:33;;;;;;;4.07;1.27;;;7.10;99.90;;;;;;5090768;28;20024;-67
2023/01/14 05:39:59;;;;;;;2.47;0.70;;;7.00;99.90;;;;;;5086865;28;20046;-69
2023/01/14 05:47:55;;;;;;;4.38;1.23;;;7.00;99.90;;;;;;5102129;28;20027;-68
2023/01/14 05:50:20;;;;;;;5.25;0.98;;;7.10;99.90;;;;;;5100832;28;20039;-65
2023/01/14 05:52:46;;;;;;;2.78;0.80;;;7.00;99.90;;;;;;5086374;28;20033;-69
2023/01/14 05:55:12;;;;;;;6.85;1.52;;;7.00;99.90;;;;;;5084172;28;20024;-68
2023/01/14 05:57:37;;;;;;;4.30;1.17;;;7.00;99.90;;;;;;5093902;28;20115;-68
2023/01/14 06:00:04;;;;;;;4.10;1.17;;;7.00;99.90;;;;;;5094709;28;20047;-68
2023/01/14 06:08:01;;;;;;;7.13;1.30;;;7.00;99.90;;;;;;5108163;28;20028;-67
2023/01/14 06:10:27;;;;;;;4.60;1.30;;;7.10;99.90;;;;;;5105083;28;20032;-68
2023/01/14 06:12:59;;;;;;;6.25;1.00;;;7.80;99.90;;;;;;5091364;28;20094;-69
2023/01/14 06:15:32;;;;;;;4.97;1.42;;;7.00;99.90;;;;;;5086686;28;20092;-68
2023/01/14 06:18:08;;;;;;;5.03;1.05;;;7.10;99.90;;;;;;5103308;28;20046;-67
2023/01/14 06:20:37;;;;;;;2.55;1.20;;;7.00;99.90;;;;;;5103795;28;20028;-68
2023/01/14 06:23:04;;;;;;;3.15;0.95;;;7.00;99.90;;;;;;5103032;28;20034;-68
2023/01/14 06:25:31;;;;;;;4.47;1.70;;;6.90;99.90;;;;;;5103824;28;20027;-66
2023/01/14 06:27:57;;;;;;;4.95;1.10;;;7.00;99.90;;;;;;5104101;28;20023;-68
2023/01/14 06:30:23;;;;;;;4.28;1.00;;;7.00;99.90;;;;;;5095333;28;20032;-69
2023/01/14 06:32:49;;;;;;;15.77;1.15;;;7.00;99.90;;;;;;5087255;28;20029;-68
2023/01/14 06:35:14;;;;;;;2.83;1.23;;;7.00;99.90;;;;;;5095759;28;20482;-67
2023/01/14 06:37:44;;;;;;;9.73;1.00;;;7.00;99.90;;;;;;5100913;28;20032;-66
2023/01/14 06:40:10;;;;;;;7.57;1.05;;;7.00;99.90;;;;;;5102491;28;20023;-68
2023/01/14 06:42:36;;;;;;;6.13;1.88;;;7.00;99.90;;;;;;5095939;28;20051;-68
2023/01/14 06:45:02;;;;;;;6.43;1.15;;;7.00;99.90;;;;;;5100635;28;20027;-68
2023/01/14 06:47:27;;;;;;;11.02;1.60;;;6.90;99.90;;;;;;5099811;28;20032;-68
2023/01/14 06:49:53;;;;;;;5.93;1.45;;;6.80;99.90;;;;;;5096466;28;20032;-68
2023/01/14 06:52:18;;;;;;;8.18;1.20;;;6.70;99.90;;;;;;5084557;28;20023;-66
2023/01/14 06:54:44;;;;;;;12.48;1.23;;;6.70;99.90;;;;;;5097213;28;20031;-68
2023/01/14 06:57:10;;;;;;;4.03;1.00;;;7.10;99.90;;;;;;5100242;28;20016;-69
2023/01/14 06:59:36;;;;;;;7.43;1.00;;;6.70;99.90;;;;;;5083510;28;20051;-68
2023/01/14 07:02:01;;;;;;;5.70;1.00;;;6.90;99.90;;;;;;5084181;28;20016;-66
2023/01/14 07:04:27;;;;;;;4.85;0.90;;;6.70;99.90;;;;;;5099002;28;20165;-67
2023/01/14 07:06:53;;;;;;;5.25;1.33;;;6.70;99.90;;;;;;5101231;28;20020;-69
2023/01/14 07:09:19;;;;;;;21.00;7.88;;;6.60;99.90;;;;;;5102010;28;20063;-65
2023/01/14 07:11:45;;;;;;;8.25;1.98;;;6.60;99.90;;;;;;5085919;28;20025;-66
2023/01/14 07:14:11;;;;;;;16.17;3.60;;;6.60;99.90;;;;;;5082174;28;20029;-67
2023/01/14 07:16:36;;;;;;;9.10;1.30;;;6.60;99.90;;;;;;5082312;28;20033;-66
2023/01/14 07:19:02;;;;;;;14.43;6.57;;;6.60;99.90;;;;;;5087890;28;20028;-67
2023/01/14 07:21:28;;;;;;;5.35;2.42;;;6.70;99.90;;;;;;5100489;28;20409;-65
2023/01/14 07:23:53;;;;;;;8.15;1.83;;;6.60;99.90;;;;;;5100428;28;20024;-68
2023/01/14 07:26:19;;;;;;;4.28;1.25;;;6.60;99.90;;;;;;5100610;28;20043;-67
2023/01/14 07:28:45;;;;;;;5.47;1.55;;;6.60;99.90;;;;;;5101019;28;20039;-67
2023/01/14 07:31:10;;;;;;;6.30;1.08;;;6.60;99.90;;;;;;5101929;28;20027;-67
2023/01/14 07:33:36;;;;;;;6.75;1.38;;;6.60;99.90;;;;;;5101457;28;20047;-68
2023/01/14 07:36:01;;;;;;;9.10;1.45;;;6.60;99.90;;;;;;5100993;28;20032;-68
2023/01/14 07:38:27;;;;;;;9.80;1.48;;;6.60;99.90;;;;;;5100942;28;20028;-67
2023/01/14 07:40:54;;;;;;;5.85;1.25;;;6.50;99.90;;;;;;5101984;28;20279;-65
2023/01/14 07:43:20;;;;;;;13.48;2.13;;;6.50;99.90;;;;;;5100695;28;20508;-67
2023/01/14 07:45:47;;;;;;;4.35;1.70;;;6.50;99.90;;;;;;5100850;28;20040;-65
2023/01/14 07:48:13;;;;;;;9.00;1.50;;;6.40;99.90;;;;;;5086100;28;20078;-67
2023/01/14 07:50:38;;;;;;;3.95;1.17;;;6.40;99.90;;;;;;5081182;28;20032;-68
2023/01/14 07:53:04;;;;;;;10.70;3.35;;;6.40;99.90;;;;;;5081092;28;20029;-67
2023/01/14 07:55:30;;;;;;;3.85;1.10;;;6.40;99.90;;;;;;5081980;28;20067;-67
2023/01/14 07:57:57;;;;;;;6.15;1.55;;;6.40;99.90;;;;;;5082041;28;20050;-67
2023/01/14 08:00:23;;;;;;;12.02;1.60;;;6.50;99.90;;;;;;5082117;28;20029;-65
2023/01/14 08:02:48;;;;;;;4.20;1.08;;;6.50;99.90;;;;;;5080009;28;20379;-68
2023/01/14 08:05:14;;;;;;;11.55;2.97;;;6.60;99.90;;;;;;5080535;28;20488;-66
2023/01/14 08:07:41;;;;;;;4.30;1.10;;;6.60;99.90;;;;;;5079718;28;20024;-68
2023/01/14 08:10:08;;;;;;;7.40;1.00;;;6.60;99.90;;;;;;5117313;22;20063;-65
2023/01/14 08:12:34;;;;;;;3.00;0.90;;;6.60;99.90;;;;;;5091311;28;20065;-66
2023/01/14 08:15:01;;;;;;;3.50;1.00;;;6.60;99.90;;;;;;5073905;28;20031;-65
2023/01/14 08:17:28;;;;;;;4.72;1.17;;;6.70;99.90;;;;;;5090704;28;20094;-62
2023/01/14 08:19:53;;;;;;;6.93;0.90;;;6.70;99.90;;;;;;5091391;28;20386;-64
2023/01/14 08:22:19;;;;;;;6.30;1.90;;;6.70;99.90;;;;;;5090946;28;20016;-65
2023/01/14 08:24:44;;;;;;;7.38;1.40;;;6.70;99.90;;;;;;5090917;28;20069;-65
2023/01/14 08:27:10;;;;;;;7.43;1.40;;;6.80;99.90;;;;;;5091320;28;20026;-65
2023/01/14 08:29:35;;;;;;;2.78;0.95;;;7.00;99.90;;;;;;5091195;28;20429;-64
2023/01/14 08:32:03;;;;;;;3.45;0.80;;;6.80;99.90;;;;;;5091146;28;20053;-61
2023/01/14 08:34:28;;;;;;;14.30;1.05;;;6.90;99.90;;;;;;5091159;28;20493;-63
2023/01/14 08:36:54;;;;;;;11.23;1.20;;;6.90;99.90;;;;;;5091860;28;20057;-63
2023/01/14 08:39:20;;;;;;;7.72;1.30;;;7.00;99.90;;;;;;5091556;28;20394;-64
2023/01/14 08:41:46;;;;;;;4.43;0.88;;;6.90;99.90;;;;;;5091807;28;20551;-64
2023/01/14 08:44:11;;;;;;;6.80;1.38;;;7.00;99.90;;;;;;5090747;28;20021;-62
2023/01/14 08:46:38;;;;;;;4.57;1.00;;;7.00;99.90;;;;;;5091311;28;20031;-65
2023/01/14 08:49:04;;;;;;;5.18;1.17;;;7.00;99.90;;;;;;5091375;28;20390;-63
2023/01/14 08:51:30;;;;;;;8.98;0.80;;;7.10;99.90;;;;;;5091092;28;20020;-64
2023/01/14 08:53:56;;;;;;;5.03;1.05;;;8.30;99.90;;;;;;5090906;28;20027;-63
2023/01/14 08:56:22;;;;;;;3.38;0.80;;;7.20;99.90;;;;;;5090457;28;20032;-65
2023/01/14 08:58:48;;;;;;;12.25;1.48;;;7.20;99.90;;;;;;5090811;28;20442;-66
2023/01/14 09:01:14;;;;;;;10.48;1.45;;;7.30;99.90;;;;;;5090660;28;20418;-64
2023/01/14 09:03:41;;;;;;;11.95;1.23;;;7.30;99.90;;;;;;5090800;28;20028;-64
2023/01/14 09:06:09;;;;;;;3.88;1.00;;;7.30;99.90;;;;;;5090401;28;20044;-66
2023/01/14 09:17:05;;;;;;;;;;;7.60;99.90;;;;;;5089128;28;20043;-66
2023/01/14 09:19:36;;;;;;;14.10;1.33;;;7.70;99.90;;;;;;5088258;28;19931;-63
2023/01/14 09:22:03;;;;;;;9.25;1.52;;;7.70;99.90;;;;;;5087580;28;20299;-64
2023/01/14 09:24:28;;;;;;;6.30;1.10;;;7.60;99.90;;;;;;5087272;28;20035;-65
2023/01/14 09:26:54;;;;;;;5.90;1.33;;;7.50;99.90;;;;;;5087516;28;20036;-64
2023/01/14 09:29:20;;;;;;;6.15;1.15;;;7.60;99.90;;;;;;5088572;28;20068;-65
2023/01/14 09:31:45;;;;;;;8.13;1.40;;;7.60;99.90;;;;;;5091257;28;20088;-65
2023/01/14 09:34:12;;;;;;;5.65;1.00;;;7.60;99.90;;;;;;5090800;28;20486;-64
2023/01/14 09:36:38;;;;;;;10.70;1.10;;;7.70;99.90;;;;;;5091255;28;20509;-65
2023/01/14 09:39:03;;;;;;;3.80;1.52;;;7.70;99.90;;;;;;5089536;28;20028;-62
2023/01/14 09:41:33;;;;;;;6.38;0.95;;;7.90;99.90;;;;;;5090969;28;20172;-65
2023/01/14 09:44:00;;;;;;;5.30;1.05;;;7.90;99.90;;;;;;5091043;28;20024;-64
2023/01/14 09:46:27;;;;;;;7.15;1.50;;;8.00;99.90;;;;;;5091363;28;20020;-64
2023/01/14 09:48:56;;;;;;;5.05;1.30;;;8.10;99.90;;;;;;5090883;28;20479;-64
2023/01/14 09:51:34;;;;;;;10.70;0.98;;;8.10;99.90;;;;;;5090974;28;20614;-62
2023/01/14 09:54:42;;;;;;;6.35;1.25;;;8.10;99.90;;;;;;5089263;28;20067;-61
2023/01/14 09:57:11;;;;;;;5.00;0.95;;;8.00;99.90;;;;;;5082013;28;20114;-65
2023/01/14 09:59:45;;;;;;;3.20;1.10;;;8.00;99.90;;;;;;5090019;28;20051;-64
2023/01/14 10:02:22;;;;;;;9.68;1.58;;;8.00;99.90;;;;;;5090562;28;20028;-62
2023/01/14 10:05:14;;;;;;;4.72;1.50;;;8.00;99.90;;;;;;5091002;28;20051;-67
2023/01/14 10:07:40;;;;;;;7.47;1.20;;;7.90;99.90;;;;;;5090353;28;20403;-64
2023/01/14 10:10:16;;;;;;;9.48;1.45;;;8.00;99.90;;;;;;5090064;28;20040;-65
2023/01/14 10:12:45;;;;;;;7.88;1.75;;;7.90;99.90;;;;;;5089228;28;20059;-65
2023/01/14 10:15:37;;;;;;;11.02;1.92;;;8.00;99.90;;;;;;5089661;28;20086;-65
2023/01/14 10:18:31;;;;;;;7.25;1.08;;;8.00;99.90;;;;;;5084437;28;20123;-65
2023/01/14 10:21:02;;;;;;;10.10;1.52;;;8.10;99.90;;;;;;5090163;28;20025;-65
2023/01/14 10:23:36;;;;;;;14.68;1.75;;;8.10;99.90;;;;;;5090257;28;20024;-63
2023/01/14 10:26:13;;;;;;;12.73;2.10;;;8.10;99.90;;;;;;5088603;28;20394;-61
2023/01/14 10:28:40;;;;;;;10.00;1.48;;;8.20;99.90;;;;;;5086358;28;20035;-65
2023/01/14 10:31:06;;;;;;;6.50;1.33;;;8.20;99.90;;;;;;5089542;28;20058;-62
2023/01/14 10:33:32;;;;;;;11.18;1.52;;;8.30;99.90;;;;;;5094626;28;20504;-63
2023/01/14 10:36:11;;;;;;;11.35;1.48;;;8.30;99.90;;;;;;5096072;28;20032;-63
2023/01/14 10:38:40;;;;;;;17.67;2.15;;;8.40;99.90;;;;;;5092547;28;20032;-64
2023/01/14 10:41:07;;;;;;;13.95;1.88;;;8.50;99.90;;;;;;5089430;28;20040;-66
2023/01/14 10:43:41;;;;;;;13.65;1.83;;;8.50;99.90;;;;;;5088950;28;20028;-66
2023/01/14 10:46:14;;;;;;;7.93;1.25;;;8.60;99.90;;;;;;5089740;28;20032;-66
2023/01/14 10:49:02;;;;;;;7.93;1.45;;;8.60;99.90;;;;;;5089564;28;20027;-64
2023/01/14 10:51:50;;;;;;;7.85;1.63;;;8.60;99.90;;;;;;5090217;28;20043;-66
2023/01/14 10:54:24;;;;;;;11.82;1.73;;;8.70;99.90;;;;;;5089667;28;20040;-63
2023/01/14 10:56:57;;;;;;;9.75;1.92;;;8.70;99.90;;;;;;5089563;28;20036;-67
2023/01/14 10:59:49;;;;;;;7.07;1.42;;;8.70;99.90;;;;;;5089634;28;20031;-66
2023/01/14 11:02:31;;;;;;;9.63;1.40;;;8.70;99.90;;;;;;5089283;28;20057;-64
2023/01/14 11:04:58;;;;;;;13.18;1.30;;;8.70;99.90;;;;;;5088891;28;20035;-66
2023/01/14 11:07:30;;;;;;;15.40;1.50;;;8.60;99.90;;;;;;5088874;28;20052;-63
2023/01/14 11:09:59;;;;;;;14.07;2.20;;;8.70;99.90;;;;;;5089065;28;20506;-66
2023/01/14 11:12:31;;;;;;;14.20;2.20;;;8.60;99.90;;;;;;5088618;28;20032;-66
2023/01/14 11:14:58;;;;;;;17.80;2.15;;;8.70;99.90;;;;;;5089335;28;20020;-63
2023/01/14 11:17:30;;;;;;;11.38;2.08;;;8.70;99.90;;;;;;5089863;28;20020;-66
2023/01/14 11:20:18;;;;;;;10.80;1.98;;;8.70;99.90;;;;;;5089380;28;20023;-62
2023/01/14 11:22:44;;;;;;;17.15;1.50;;;8.70;99.90;;;;;;5088906;28;20103;-63
2023/01/14 11:25:21;;;;;;;16.83;1.48;;;8.70;99.90;;;;;;5089369;28;20024;-63
2023/01/14 11:27:49;;;;;;;16.08;2.53;;;8.80;99.90;;;;;;5088618;28;20028;-68
2023/01/14 11:30:18;;;;;;;21.40;3.15;;;8.80;99.90;;;;;;5088663;28;20024;-61
2023/01/14 11:32:50;;;;;;;9.10;2.42;;;8.90;99.90;;;;;;5089600;28;20028;-64
2023/01/14 11:35:20;;;;;;;12.13;1.63;;;8.90;99.90;;;;;;5091060;28;20110;-64
2023/01/14 11:37:48;;;;;;;20.38;1.98;;;8.80;99.90;;;;;;5091142;28;20035;-65
2023/01/14 11:43:19;;;;;;;16.23;2.33;;;8.70;99.90;;;;;;5091495;28;20039;-67
2023/01/14 11:45:45;;;;;;;11.52;1.58;;;8.70;99.90;;;;;;5091064;28;20405;-63
2023/01/14 11:48:28;;;;;;;19.80;2.33;;;8.70;99.90;;;;;;5090894;28;20024;-66
2023/01/14 11:51:02;;;;;;;21.65;1.98;;;8.70;99.90;;;;;;5091614;28;20489;-60
2023/01/14 11:53:49;;;;;;;9.02;1.70;;;8.60;99.90;;;;;;5091445;28;20058;-63
2023/01/14 11:56:33;;;;;;;7.38;1.40;;;8.60;99.90;;;;;;5091864;28;20122;-63
2023/01/14 11:59:05;;;;;;;5.00;1.45;;;8.70;99.90;;;;;;5091763;28;20081;-64
2023/01/14 12:01:46;;;;;;;10.02;1.25;;;8.60;99.90;;;;;;5091500;28;20028;-64
2023/01/14 12:04:16;;;;;;;10.55;1.65;;;8.60;99.90;;;;;;5091395;28;20028;-64
2023/01/14 12:07:05;;;;;;;9.38;1.60;;;8.60;99.90;;;;;;5091266;28;20543;-65
2023/01/14 12:09:36;;;;;;;9.32;2.33;;;8.60;99.90;;;;;;5091119;28;20032;-65
2023/01/14 12:12:10;;;;;;;5.00;1.35;;;8.50;99.90;;;;;;5091381;28;20107;-62
2023/01/14 12:17:50;;;;;;;8.65;1.77;;;8.50;99.90;;;;;;5090794;28;20034;-66
2023/01/14 12:20:22;;;;;;;20.92;2.10;;;8.60;99.90;;;;;;5091027;28;20109;-64
2023/01/14 12:23:00;;;;;;;7.25;1.55;;;8.50;99.90;;;;;;5091717;28;20054;-59
2023/01/14 12:25:45;;;;;;;14.48;1.67;;;8.50;99.90;;;;;;5091743;28;20177;-65
2023/01/14 12:28:14;;;;;;;10.77;1.55;;;8.50;99.90;;;;;;5090729;28;20039;-65
2023/01/14 12:30:56;;;;;;;5.68;1.25;;;8.50;99.90;;;;;;5092126;28;20504;-63
2023/01/14 12:34:02;;;;;;;6.60;1.15;;;8.50;99.90;;;;;;5092471;28;20020;-65
2023/01/14 12:37:02;;;;;;;13.82;1.58;;;8.40;99.90;;;;;;5092348;28;20032;-65
2023/01/14 12:45:44;;;;;;;10.65;1.45;;;8.30;99.90;;;;;;4737497;28;9999913;-64
2023/01/14 12:48:14;;;;;;;14.60;1.55;;;8.20;99.90;;;;;;5074370;28;20040;-62
2023/01/14 12:50:54;;;;;;;8.23;2.20;;;8.20;99.90;;;;;;5085604;28;20081;-64
2023/01/14 12:53:32;;;;;;;15.45;1.40;;;8.20;99.90;;;;;;5079581;28;20041;-65
2023/01/14 12:56:03;;;;;;;13.40;1.95;;;8.10;99.90;;;;;;5076539;28;20028;-65
2023/01/14 12:58:35;;;;;;;15.23;1.92;;;8.20;99.90;;;;;;5086144;28;20074;-62
2023/01/14 13:01:14;;;;;;;7.88;1.60;;;8.20;99.90;;;;;;5087927;28;20039;-66
2023/01/14 13:03:47;;;;;;;9.15;1.70;;;8.20;99.90;;;;;;5086502;28;20024;-62
2023/01/14 13:06:23;;;;;;;10.15;2.03;;;8.20;99.90;;;;;;5090184;28;20024;-64
2023/01/14 13:08:55;;;;;;;11.07;2.28;;;8.20;99.90;;;;;;5092266;28;20034;-63
2023/01/14 13:11:29;;;;;;;8.52;2.08;;;8.20;99.90;;;;;;5093567;28;20055;-64
2023/01/14 13:14:03;;;;;;;9.70;1.35;;;8.30;99.90;;;;;;5095041;28;20028;-63
2023/01/14 13:16:41;;;;;;;8.20;1.20;;;8.20;99.90;;;;;;5093477;28;20030;-64
2023/01/14 13:19:25;;;;;;;9.00;1.95;;;8.20;99.90;;;;;;5090305;28;20178;-62
2023/01/14 13:21:56;;;;;;;17.92;2.20;;;8.10;99.90;;;;;;5088266;28;20085;-63
2023/01/14 13:24:54;;;;;;;14.18;2.00;;;8.10;99.90;;;;;;5090508;28;20518;-64
2023/01/14 13:27:38;;;;;;;8.75;1.67;;;8.00;99.90;;;;;;5086721;28;20024;-65
2023/01/14 13:30:18;;;;;;;8.73;1.90;;;8.00;99.90;;;;;;5089023;28;20606;-66
2023/01/14 13:32:59;;;;;;;12.38;1.60;;;8.00;99.90;;;;;;5090249;28;20115;-65
2023/01/14 13:35:27;;;;;;;14.23;3.75;;;8.00;99.90;;;;;;5091340;28;20074;-66
2023/01/14 13:37:54;;;;;;;10.75;1.75;;;8.10;99.90;;;;;;5090836;28;20103;-65
2023/01/14 13:40:26;;;;;;;5.30;1.80;;;8.10;99.90;;;;;;5090296;28;20024;-65
2023/01/14 13:43:03;;;;;;;12.68;1.42;;;8.10;99.90;;;;;;5090538;28;20392;-66
2023/01/14 13:45:31;;;;;;;12.68;1.33;;;8.10;99.90;;;;;;5089337;28;20016;-66
2023/01/14 13:48:11;;;;;;;17.17;2.72;;;8.00;99.90;;;;;;5091373;28;20440;-66
2023/01/14 13:50:38;;;;;;;14.35;1.40;;;8.00;99.90;;;;;;5089493;28;20531;-67
2023/01/14 13:53:21;;;;;;;16.45;2.00;;;8.00;99.90;;;;;;5089965;28;20032;-67
2023/01/14 13:55:52;;;;;;;17.15;1.95;;;8.00;99.90;;;;;;5090962;28;20024;-66
2023/01/14 13:58:39;;;;;;;6.28;1.38;;;8.00;99.90;;;;;;5089750;28;20057;-66
2023/01/14 14:01:24;;;;;;;9.32;1.45;;;7.90;99.90;;;;;;5090572;28;20023;-66
2023/01/14 14:03:51;;;;;;;9.02;1.65;;;7.90;99.90;;;;;;5087771;28;20123;-67
2023/01/14 14:06:19;;;;;;;17.52;1.67;;;7.90;99.90;;;;;;5090408;28;20039;-67
2023/01/14 14:08:59;;;;;;;13.70;1.30;;;7.90;99.90;;;;;;5119215;22;20031;-67